createdAt,value
2018-07-26T00:01:00.001Z,7.53
2018-07-26T00:03:57.340Z,7.20
2018-07-26T00:06:55.338Z,7.20
2018-07-26T00:09:53.215Z,7.60
2018-07-26T00:12:50.988Z,7.37
2018-07-26T00:15:48.046Z,7.63
2018-07-26T00:18:45.239Z,8.30
2018-07-26T00:21:43.206Z,7.10
2018-07-26T00:24:40.631Z,8.17
2018-07-26T00:27:37.863Z,8.00
2018-07-26T00:30:35.802Z,8.23
2018-07-26T00:33:33.823Z,8.10
2018-07-26T00:36:31.624Z,8.13
2018-07-26T00:39:30.702Z,7.63
2018-07-26T00:42:28.157Z,7.50
2018-07-26T00:45:25.432Z,7.83
2018-07-26T00:48:23.469Z,8.00
2018-07-26T00:51:21.164Z,7.70
2018-07-26T00:54:18.543Z,7.70
2018-07-26T00:57:15.617Z,8.00
2018-07-26T01:00:13.057Z,8.10
2018-07-26T01:03:10.723Z,8.70
2018-07-26T01:06:08.164Z,8.10
2018-07-26T01:09:06.151Z,8.63
2018-07-26T01:12:04.217Z,7.97
2018-07-26T01:15:01.351Z,8.87
2018-07-26T01:17:58.628Z,8.00
2018-07-26T01:20:55.807Z,7.70
2018-07-26T01:23:54.102Z,7.87
2018-07-26T01:26:51.230Z,7.90
2018-07-26T01:29:48.622Z,8.13
2018-07-26T01:32:46.239Z,8.77
2018-07-26T01:35:43.692Z,8.70
2018-07-26T01:38:41.735Z,8.00
2018-07-26T01:41:39.751Z,8.63
2018-07-26T01:44:41.114Z,8.03
2018-07-26T01:47:39.118Z,8.73
2018-07-26T01:50:36.754Z,8.87
2018-07-26T01:53:34.134Z,9.13
2018-07-26T01:56:31.363Z,9.30
2018-07-26T01:59:28.507Z,8.57
2018-07-26T02:02:25.556Z,8.90
2018-07-26T02:05:22.770Z,8.83
2018-07-26T02:08:19.783Z,9.80
2018-07-26T02:11:16.998Z,9.47
2018-07-26T02:14:18.540Z,8.10
2018-07-26T02:17:16.331Z,8.10
2018-07-26T02:20:13.984Z,7.93
2018-07-26T02:23:11.863Z,8.87
2018-07-26T02:26:09.700Z,9.67
2018-07-26T02:29:07.811Z,9.67
2018-07-26T02:32:05.367Z,9.50
2018-07-26T02:35:03.348Z,9.33
2018-07-26T02:38:01.058Z,9.73
2018-07-26T02:40:58.360Z,10.53
2018-07-26T02:43:55.917Z,9.37
2018-07-26T02:46:53.080Z,9.47
2018-07-26T02:49:51.030Z,9.37
2018-07-26T02:52:48.604Z,10.47
2018-07-26T02:55:37.483Z,11.00
2018-07-26T02:58:35.234Z,10.03
2018-07-26T03:01:33.120Z,10.13
2018-07-26T03:04:30.876Z,10.03
2018-07-26T03:07:28.727Z,10.10
2018-07-26T03:10:26.027Z,10.07
2018-07-26T03:13:23.567Z,10.57
2018-07-26T03:16:20.743Z,11.07
2018-07-26T03:19:18.055Z,10.13
2018-07-26T03:22:15.368Z,11.17
2018-07-26T03:25:12.720Z,11.53
2018-07-26T03:28:10.476Z,10.60
2018-07-26T03:31:07.666Z,11.77
2018-07-26T03:34:05.303Z,12.17
2018-07-26T03:37:03.260Z,11.87
2018-07-26T03:40:00.935Z,10.07
2018-07-26T03:42:58.629Z,11.03
2018-07-26T03:45:56.779Z,10.90
2018-07-26T03:48:53.860Z,11.80
2018-07-26T03:51:51.298Z,10.67
2018-07-26T03:54:48.493Z,10.90
2018-07-26T03:57:46.559Z,10.47
2018-07-26T04:00:44.412Z,11.00
2018-07-26T04:03:42.347Z,10.70
2018-07-26T04:06:40.415Z,9.97
2018-07-26T04:09:38.216Z,9.47
2018-07-26T04:12:35.399Z,10.20
2018-07-26T04:15:32.459Z,10.27
2018-07-26T04:18:29.912Z,8.90
2018-07-26T04:21:27.975Z,9.03
2018-07-26T04:24:26.088Z,9.43
2018-07-26T04:27:24.244Z,9.00
2018-07-26T04:30:21.447Z,8.93
2018-07-26T04:33:19.059Z,8.47
2018-07-26T04:36:16.306Z,8.80
2018-07-26T04:39:13.179Z,9.53
2018-07-26T04:42:11.168Z,8.80
2018-07-26T04:45:08.514Z,8.97
2018-07-26T04:48:06.611Z,7.90
2018-07-26T04:51:03.945Z,9.37
2018-07-26T04:54:01.216Z,9.07
2018-07-26T04:56:59.139Z,7.67
2018-07-26T04:59:56.651Z,7.90
2018-07-26T05:02:54.412Z,8.53
2018-07-26T05:05:52.384Z,8.80
2018-07-26T05:08:50.043Z,8.63
2018-07-26T05:11:47.893Z,8.67
2018-07-26T05:14:45.115Z,10.00
2018-07-26T05:17:42.204Z,9.73
2018-07-26T05:20:39.486Z,10.00
2018-07-26T05:23:37.392Z,10.03
2018-07-26T05:26:34.855Z,10.28
2018-07-26T05:29:32.403Z,9.63
2018-07-26T05:32:30.392Z,9.83
2018-07-26T05:35:27.488Z,10.78
2018-07-26T05:38:24.700Z,10.00
2018-07-26T05:41:21.804Z,9.45
2018-07-26T05:44:19.095Z,9.63
2018-07-26T05:47:16.564Z,9.95
2018-07-26T05:50:15.529Z,9.80
2018-07-26T05:53:13.723Z,9.53
2018-07-26T05:56:11.683Z,9.53
2018-07-26T05:59:09.348Z,9.33
2018-07-26T06:02:06.543Z,10.90
2018-07-26T06:05:04.258Z,10.55
2018-07-26T06:08:01.593Z,8.95
2018-07-26T06:10:58.730Z,9.65
2018-07-26T06:13:55.660Z,9.70
2018-07-26T06:16:53.508Z,9.80
2018-07-26T06:19:50.905Z,9.50
2018-07-26T06:22:48.183Z,9.25
2018-07-26T06:25:45.406Z,9.48
2018-07-26T06:28:42.963Z,9.33
2018-07-26T06:31:40.848Z,8.05
2018-07-26T06:34:38.796Z,9.13
2018-07-26T06:37:36.279Z,8.80
2018-07-26T06:40:36.066Z,8.40
2018-07-26T06:43:36.100Z,8.60
2018-07-26T06:46:33.208Z,9.65
2018-07-26T06:49:30.749Z,8.40
2018-07-26T06:52:28.378Z,9.23
2018-07-26T06:55:26.302Z,9.20
2018-07-26T06:58:23.431Z,7.67
2018-07-26T07:01:21.512Z,8.50
2018-07-26T07:04:19.393Z,7.58
2018-07-26T07:07:17.349Z,7.92
2018-07-26T07:10:15.362Z,7.53
2018-07-26T07:13:12.659Z,7.05
2018-07-26T07:16:09.728Z,6.35
2018-07-26T07:19:07.291Z,6.83
2018-07-26T07:22:04.556Z,6.28
2018-07-26T07:25:02.504Z,5.70
2018-07-26T07:27:59.524Z,5.78
2018-07-26T07:30:57.337Z,5.12
2018-07-26T07:33:54.408Z,5.53
2018-07-26T07:36:52.040Z,4.90
2018-07-26T07:39:50.075Z,4.50
2018-07-26T07:42:48.097Z,4.90
2018-07-26T07:45:45.735Z,4.90
2018-07-26T07:48:42.732Z,4.60
2018-07-26T07:51:40.207Z,4.40
2018-07-26T07:54:37.320Z,4.47
2018-07-26T07:57:34.507Z,4.45
2018-07-26T08:00:32.768Z,4.00
2018-07-26T08:03:29.899Z,4.37
2018-07-26T08:06:28.035Z,4.37
2018-07-26T08:09:25.160Z,4.45
2018-07-26T08:12:22.439Z,3.98
2018-07-26T08:15:20.649Z,4.00
2018-07-26T08:18:17.710Z,3.75
2018-07-26T08:21:15.837Z,3.47
2018-07-26T08:24:13.643Z,4.30
2018-07-26T08:27:11.108Z,3.65
2018-07-26T08:30:08.267Z,3.80
2018-07-26T08:33:05.324Z,3.60
2018-07-26T08:36:02.641Z,3.77
2018-07-26T08:39:00.180Z,4.33
2018-07-26T08:41:58.165Z,3.70
2018-07-26T08:44:55.168Z,3.90
2018-07-26T08:47:52.420Z,3.72
2018-07-26T08:50:49.461Z,3.87
2018-07-26T08:53:47.339Z,3.55
2018-07-26T08:56:44.662Z,3.45
2018-07-26T08:59:42.049Z,3.77
2018-07-26T09:02:40.063Z,3.40
2018-07-26T09:05:37.261Z,3.98
2018-07-26T09:08:34.920Z,2.80
2018-07-26T09:11:32.162Z,3.00
2018-07-26T09:14:29.337Z,3.15
2018-07-26T09:17:26.431Z,2.50
2018-07-26T09:20:23.682Z,2.85
2018-07-26T09:23:21.167Z,2.72
2018-07-26T09:26:18.293Z,2.50
2018-07-26T09:29:15.416Z,2.17
2018-07-26T09:32:12.590Z,2.90
2018-07-26T09:35:10.381Z,2.85
2018-07-26T09:38:07.533Z,2.70
2018-07-26T09:41:04.582Z,2.40
2018-07-26T09:44:01.630Z,2.55
2018-07-26T09:46:58.944Z,2.20
2018-07-26T09:49:56.078Z,2.33
2018-07-26T09:52:53.523Z,2.33
2018-07-26T09:55:50.872Z,2.10
2018-07-26T09:58:48.635Z,2.10
2018-07-26T10:01:46.644Z,2.33
2018-07-26T10:04:44.733Z,2.30
2018-07-26T10:07:42.014Z,2.25
2018-07-26T10:10:39.064Z,2.35
2018-07-26T10:13:36.446Z,2.22
2018-07-26T10:16:33.675Z,2.77
2018-07-26T10:19:30.918Z,2.70
2018-07-26T10:22:28.696Z,2.55
2018-07-26T10:25:26.760Z,2.22
2018-07-26T10:28:24.096Z,2.02
2018-07-26T10:31:21.184Z,2.40
2018-07-26T10:34:18.428Z,2.30
2018-07-26T10:37:15.612Z,2.77
2018-07-26T10:40:12.749Z,2.42
2018-07-26T10:43:10.023Z,2.40
2018-07-26T10:46:07.184Z,2.72
2018-07-26T10:49:04.376Z,2.10
2018-07-26T10:52:01.490Z,2.42
2018-07-26T10:54:59.453Z,3.15
2018-07-26T10:57:57.560Z,2.35
2018-07-26T11:00:54.727Z,1.85
2018-07-26T11:03:51.883Z,2.20
2018-07-26T11:06:49.992Z,2.50
2018-07-26T11:09:47.391Z,1.80
2018-07-26T11:12:45.401Z,1.70
2018-07-26T11:15:45.676Z,1.57
2018-07-26T11:18:42.953Z,1.70
2018-07-26T11:21:40.503Z,2.10
2018-07-26T11:24:37.893Z,2.20
2018-07-26T11:27:35.424Z,1.90
2018-07-26T11:30:33.174Z,2.45
2018-07-26T11:33:30.651Z,1.98
2018-07-26T11:36:28.040Z,1.45
2018-07-26T11:39:25.353Z,2.08
2018-07-26T11:42:23.325Z,2.08
2018-07-26T11:45:20.462Z,2.10
2018-07-26T11:48:17.644Z,2.12
2018-07-26T11:51:14.908Z,2.02
2018-07-26T11:54:12.191Z,2.20
2018-07-26T11:57:09.292Z,2.30
2018-07-26T12:00:06.937Z,1.70
2018-07-26T12:03:04.459Z,1.70
2018-07-26T12:06:01.718Z,1.98
2018-07-26T12:08:59.080Z,2.25
2018-07-26T12:11:56.616Z,1.70
2018-07-26T12:14:54.350Z,1.92
2018-07-26T12:17:51.458Z,2.20
2018-07-26T12:20:48.633Z,2.02
2018-07-26T12:23:45.850Z,2.40
2018-07-26T12:26:42.967Z,1.87
2018-07-26T12:29:40.809Z,2.20
2018-07-26T12:32:37.939Z,2.02
2018-07-26T12:35:35.960Z,2.53
2018-07-26T12:38:33.039Z,2.00
2018-07-26T12:41:30.513Z,2.65
2018-07-26T12:44:28.331Z,2.50
2018-07-26T12:47:26.323Z,2.58
2018-07-26T12:50:24.142Z,2.30
2018-07-26T12:53:22.323Z,2.40
2018-07-26T12:56:20.356Z,2.20
2018-07-26T12:59:18.517Z,2.55
2018-07-26T13:02:15.845Z,2.30
2018-07-26T13:05:13.027Z,2.50
2018-07-26T13:08:10.897Z,2.47
2018-07-26T13:11:09.051Z,2.47
2018-07-26T13:14:06.684Z,2.75
2018-07-26T13:17:03.996Z,2.45
2018-07-26T13:20:01.172Z,2.67
2018-07-26T13:22:58.352Z,2.50
2018-07-26T13:25:55.650Z,2.47
2018-07-26T13:28:53.743Z,2.62
2018-07-26T13:31:51.203Z,2.90
2018-07-26T13:34:48.893Z,2.85
2018-07-26T13:37:46.415Z,2.70
2018-07-26T13:40:43.665Z,2.60
2018-07-26T13:43:40.997Z,2.40
2018-07-26T13:46:39.112Z,2.33
2018-07-26T13:49:36.393Z,2.85
2018-07-26T13:52:42.451Z,2.75
2018-07-26T13:55:39.787Z,2.67
2018-07-26T13:58:36.932Z,2.52
2018-07-26T14:01:34.131Z,2.67
2018-07-26T14:04:31.396Z,2.70
2018-07-26T14:07:28.619Z,2.25
2018-07-26T14:10:25.560Z,2.95
2018-07-26T14:13:23.735Z,3.77
2018-07-26T14:16:20.869Z,2.60
2018-07-26T14:19:18.071Z,3.02
2018-07-26T14:22:16.213Z,2.95
2018-07-26T14:25:13.900Z,2.92
2018-07-26T14:28:10.993Z,2.72
2018-07-26T14:31:08.171Z,2.62
2018-07-26T14:34:05.279Z,2.75
2018-07-26T14:37:02.696Z,2.80
2018-07-26T14:40:00.722Z,2.85
2018-07-26T14:42:58.291Z,2.55
2018-07-26T14:45:55.647Z,2.70
2018-07-26T14:48:52.936Z,2.72
2018-07-26T14:51:50.226Z,2.77
2018-07-26T14:54:48.159Z,2.80
2018-07-26T14:57:45.591Z,2.92
2018-07-26T15:00:43.672Z,3.00
2018-07-26T15:03:40.691Z,2.75
2018-07-26T15:06:38.023Z,2.67
2018-07-26T15:09:35.864Z,2.70
2018-07-26T15:12:32.976Z,3.15
2018-07-26T15:15:30.053Z,2.87
2018-07-26T15:18:27.306Z,2.58
2018-07-26T15:21:24.570Z,2.70
2018-07-26T15:24:21.825Z,2.87
2018-07-26T15:27:19.856Z,2.83
2018-07-26T15:30:17.042Z,2.42
2018-07-26T15:33:14.229Z,2.75
2018-07-26T15:36:11.756Z,2.65
2018-07-26T15:39:09.065Z,2.42
2018-07-26T15:42:06.815Z,2.65
2018-07-26T15:45:03.848Z,2.25
2018-07-26T15:48:01.001Z,2.30
2018-07-26T15:50:58.281Z,2.58
2018-07-26T15:53:56.031Z,2.58
2018-07-26T15:56:53.897Z,2.77
2018-07-26T15:59:51.114Z,2.70
2018-07-26T16:02:48.836Z,2.52
2018-07-26T16:05:46.067Z,2.60
2018-07-26T16:08:43.204Z,2.58
2018-07-26T16:11:41.115Z,2.72
2018-07-26T16:14:39.127Z,2.52
2018-07-26T16:17:36.941Z,2.60
2018-07-26T16:20:34.052Z,2.58
2018-07-26T16:23:31.322Z,2.87
2018-07-26T16:26:29.567Z,2.67
2018-07-26T16:29:27.676Z,2.65
2018-07-26T16:32:25.826Z,2.50
2018-07-26T16:35:23.076Z,2.50
2018-07-26T16:38:20.226Z,2.20
2018-07-26T16:41:17.472Z,2.65
2018-07-26T16:44:15.443Z,2.90
2018-07-26T16:47:12.949Z,2.67
2018-07-26T16:50:10.386Z,2.87
2018-07-26T16:53:08.487Z,3.10
2018-07-26T16:56:06.045Z,3.00
2018-07-26T16:59:03.935Z,2.60
2018-07-26T17:02:01.417Z,2.55
2018-07-26T17:04:58.603Z,2.92
2018-07-26T17:07:58.655Z,2.75
2018-07-26T17:10:56.491Z,2.70
2018-07-26T17:13:54.012Z,2.62
2018-07-26T17:16:52.144Z,2.85
2018-07-26T17:19:49.310Z,2.60
2018-07-26T17:22:46.905Z,2.80
2018-07-26T17:25:44.671Z,3.10
2018-07-26T17:28:41.950Z,3.10
2018-07-26T17:31:39.147Z,3.05
2018-07-26T17:34:36.956Z,2.90
2018-07-26T17:37:34.660Z,3.08
2018-07-26T17:40:32.570Z,3.08
2018-07-26T17:43:29.595Z,2.85
2018-07-26T17:46:27.098Z,3.15
2018-07-26T17:49:24.250Z,3.20
2018-07-26T17:52:22.125Z,3.12
2018-07-26T17:55:20.395Z,2.65
2018-07-26T17:58:18.351Z,3.08
2018-07-26T18:01:15.436Z,2.83
2018-07-26T18:04:12.915Z,2.85
2018-07-26T18:07:10.642Z,2.63
2018-07-26T18:10:07.900Z,2.75
2018-07-26T18:13:05.582Z,3.10
2018-07-26T18:16:03.364Z,2.87
2018-07-26T18:19:00.912Z,2.57
2018-07-26T18:21:58.504Z,2.90
2018-07-26T18:24:55.940Z,2.60
2018-07-26T18:27:53.529Z,3.27
2018-07-26T18:30:51.166Z,3.37
2018-07-26T18:33:48.728Z,3.20
2018-07-26T18:36:46.005Z,2.87
2018-07-26T18:39:43.965Z,2.83
2018-07-26T18:42:41.307Z,2.90
2018-07-26T18:45:38.792Z,3.17
2018-07-26T18:48:36.764Z,2.80
2018-07-26T18:51:34.679Z,3.00
2018-07-26T18:54:32.615Z,3.53
2018-07-26T18:57:30.697Z,3.27
2018-07-26T19:00:29.291Z,3.40
2018-07-26T19:03:27.228Z,2.87
2018-07-26T19:06:24.717Z,3.47
2018-07-26T19:09:23.005Z,3.03
2018-07-26T19:12:20.655Z,3.53
2018-07-26T19:15:19.060Z,3.30
2018-07-26T19:18:16.827Z,3.30
2018-07-26T19:21:14.688Z,3.00
2018-07-26T19:24:12.082Z,3.00
2018-07-26T19:27:09.251Z,3.23
2018-07-26T19:30:07.007Z,3.37
2018-07-26T19:33:04.336Z,3.60
2018-07-26T19:36:02.152Z,3.57
2018-07-26T19:38:59.146Z,3.20
2018-07-26T19:41:56.909Z,3.83
2018-07-26T19:44:54.904Z,3.73
2018-07-26T19:47:51.948Z,3.80
2018-07-26T19:50:49.113Z,3.10
2018-07-26T19:53:46.406Z,3.30
2018-07-26T19:56:44.541Z,3.77
2018-07-26T19:59:42.552Z,5.37
2018-07-26T20:02:40.432Z,10.77
2018-07-26T20:05:37.847Z,4.17
2018-07-26T20:08:35.817Z,3.37
2018-07-26T20:11:33.870Z,4.23
2018-07-26T20:14:30.866Z,3.80
2018-07-26T20:17:27.787Z,3.93
2018-07-26T20:20:25.449Z,3.77
2018-07-26T20:23:23.042Z,3.77
2018-07-26T20:26:20.370Z,4.00
2018-07-26T20:29:17.858Z,4.30
2018-07-26T20:32:15.380Z,3.73
2018-07-26T20:35:13.087Z,3.90
2018-07-26T20:38:10.615Z,3.53
2018-07-26T20:41:08.199Z,4.10
2018-07-26T20:44:06.194Z,3.60
2018-07-26T20:47:03.779Z,4.20
2018-07-26T20:50:01.304Z,3.67
2018-07-26T20:52:59.038Z,4.53
2018-07-26T20:55:56.808Z,4.07
2018-07-26T20:58:54.413Z,4.07
2018-07-26T21:01:52.594Z,3.60
2018-07-26T21:04:50.755Z,3.83
2018-07-26T21:07:47.912Z,3.70
2018-07-26T21:10:45.860Z,3.70
2018-07-26T21:13:43.871Z,3.77
2018-07-26T21:16:40.816Z,4.10
2018-07-26T21:19:38.688Z,3.60
2018-07-26T21:22:36.706Z,4.03
2018-07-26T21:25:34.304Z,4.40
2018-07-26T21:28:32.315Z,4.10
2018-07-26T21:31:29.475Z,4.50
2018-07-26T21:34:27.422Z,3.90
2018-07-26T21:37:24.500Z,4.10
2018-07-26T21:40:22.268Z,4.60
2018-07-26T21:43:20.081Z,4.23
2018-07-26T21:46:17.219Z,4.33
2018-07-26T21:49:14.406Z,4.00
2018-07-26T21:52:11.743Z,3.93
2018-07-26T21:55:09.283Z,4.17
2018-07-26T21:58:07.167Z,4.60
2018-07-26T22:01:05.872Z,4.00
2018-07-26T22:04:03.463Z,3.53
2018-07-26T22:07:00.553Z,4.70
2018-07-26T22:09:57.720Z,4.50
2018-07-26T22:12:55.496Z,4.10
2018-07-26T22:15:53.434Z,4.63
2018-07-26T22:18:51.429Z,3.90
2018-07-26T22:21:48.531Z,4.27
2018-07-26T22:24:46.618Z,4.73
2018-07-26T22:27:44.588Z,4.40
2018-07-26T22:30:41.486Z,4.90
2018-07-26T22:33:39.450Z,4.20
2018-07-26T22:36:36.496Z,4.20
2018-07-26T22:39:34.435Z,4.40
2018-07-26T22:42:31.431Z,4.30
2018-07-26T22:45:29.332Z,4.90
2018-07-26T22:48:27.213Z,4.27
2018-07-26T22:51:24.960Z,4.33
2018-07-26T22:54:22.294Z,4.30
2018-07-26T22:57:19.367Z,4.47
2018-07-26T23:00:16.904Z,4.30
2018-07-26T23:03:14.567Z,4.60
2018-07-26T23:06:11.803Z,4.20
2018-07-26T23:09:08.817Z,4.97
2018-07-26T23:12:06.379Z,4.53
2018-07-26T23:15:03.920Z,4.83
2018-07-26T23:18:01.257Z,4.73
2018-07-26T23:20:58.734Z,4.50
2018-07-26T23:23:56.411Z,4.67
2018-07-26T23:26:53.320Z,5.20
2018-07-26T23:29:51.238Z,4.73
2018-07-26T23:32:48.474Z,5.20
2018-07-26T23:35:46.555Z,4.33
2018-07-26T23:38:43.771Z,5.30
2018-07-26T23:41:41.819Z,5.10
2018-07-26T23:44:39.687Z,4.83
2018-07-26T23:47:36.934Z,4.67
2018-07-26T23:50:35.020Z,5.27
2018-07-26T23:53:32.164Z,4.40
2018-07-26T23:56:30.288Z,4.80
2018-07-26T23:59:27.891Z,5.40
